Time;durP1;ratioP1;P1;durP2;ratioP2;P2;SDS_P1;SDS_P2;PMS_P1;PMS_P2;Temp;Humidity;BMP_temperature;BMP_pressure;BME280_temperature;BME280_humidity;BME280_pressure;Samples;Min_cycle;Max_cycle;Signal;HPM_P1;HPM_P2
2022/09/21 00:01:04;;;;;;;18.53;11.63;;;11.10;99.90;;;;;;5073254;28;20207;-70
2022/09/21 00:03:30;;;;;;;17.80;11.33;;;11.10;99.90;;;;;;5073135;28;20177;-69
2022/09/21 00:06:02;;;;;;;15.03;11.97;;;11.10;99.90;;;;;;5072970;28;20176;-69
2022/09/21 00:08:28;;;;;;;17.47;12.70;;;11.10;99.90;;;;;;5073283;28;20176;-71
2022/09/21 00:10:53;;;;;;;18.47;12.20;;;11.10;99.90;;;;;;5073441;28;20188;-70
2022/09/21 00:13:19;;;;;;;20.00;12.27;;;11.10;99.90;;;;;;5073195;28;20172;-70
2022/09/21 00:15:45;;;;;;;21.20;12.07;;;11.10;99.90;;;;;;5073277;28;20212;-69
2022/09/21 00:18:12;;;;;;;20.70;12.20;;;11.10;99.90;;;;;;5072780;28;20262;-69
2022/09/21 00:20:44;;;;;;;17.90;11.87;;;11.00;99.90;;;;;;5072180;28;20729;-70
2022/09/21 00:23:09;;;;;;;18.27;12.53;;;11.00;99.90;;;;;;5073144;28;20177;-69
2022/09/21 00:25:35;;;;;;;17.43;12.20;;;10.90;99.90;;;;;;5073003;28;20198;-68
2022/09/21 00:28:01;;;;;;;18.40;12.60;;;10.90;99.90;;;;;;5073039;28;20233;-69
2022/09/21 00:30:27;;;;;;;16.40;12.13;;;10.80;99.90;;;;;;5072852;28;20252;-69
2022/09/21 00:32:53;;;;;;;16.67;12.17;;;10.80;99.90;;;;;;5072986;28;20192;-70
2022/09/21 00:35:19;;;;;;;20.13;12.27;;;10.80;99.90;;;;;;5072653;28;20616;-70
2022/09/21 00:37:44;;;;;;;19.43;12.67;;;10.80;99.90;;;;;;5072808;28;20173;-70
2022/09/21 00:40:11;;;;;;;15.27;11.90;;;10.80;99.90;;;;;;5072861;28;20164;-69
2022/09/21 00:42:37;;;;;;;19.80;11.40;;;10.80;99.90;;;;;;5073207;28;20260;-70
2022/09/21 00:45:04;;;;;;;18.93;11.53;;;10.80;99.90;;;;;;5072864;28;20577;-70
2022/09/21 00:47:39;;;;;;;15.27;11.77;;;10.80;99.90;;;;;;5072792;28;20566;-70
2022/09/21 00:50:12;;;;;;;19.53;12.90;;;10.80;99.90;;;;;;5072421;28;20168;-70
2022/09/21 00:52:42;;;;;;;21.67;12.93;;;10.80;99.90;;;;;;5071589;28;20173;-70
2022/09/21 00:55:18;;;;;;;21.97;13.33;;;10.80;99.90;;;;;;5072537;28;20200;-70
2022/09/21 00:57:48;;;;;;;21.00;12.63;;;10.80;99.90;;;;;;5071437;28;20644;-70
2022/09/21 01:00:13;;;;;;;20.73;13.07;;;10.80;99.90;;;;;;5072632;28;20620;-70
2022/09/21 01:02:40;;;;;;;19.30;12.77;;;10.80;99.90;;;;;;5072800;28;20173;-69
2022/09/21 01:05:07;;;;;;;18.73;12.00;;;10.80;99.90;;;;;;5071163;28;20169;-70
2022/09/21 01:07:37;;;;;;;18.93;12.27;;;10.80;99.90;;;;;;5075212;28;20187;-70
2022/09/21 01:10:09;;;;;;;15.60;12.17;;;10.80;99.90;;;;;;5076270;28;20169;-70
2022/09/21 01:12:46;;;;;;;18.13;12.60;;;10.70;99.90;;;;;;5076415;28;20251;-70
2022/09/21 01:15:31;;;;;;;20.13;12.90;;;10.70;99.90;;;;;;5076285;28;20199;-69
2022/09/21 01:18:29;;;;;;;19.70;13.27;;;10.70;99.90;;;;;;5075915;28;20220;-69
2022/09/21 01:21:06;;;;;;;21.23;12.77;;;10.60;99.90;;;;;;5033923;28;20312;-69
2022/09/21 01:23:35;;;;;;;19.60;12.03;;;10.60;99.90;;;;;;5034155;28;20217;-69
2022/09/21 01:26:35;;;;;;;20.07;13.73;;;10.60;99.90;;;;;;5033899;28;20177;-69
2022/09/21 01:29:18;;;;;;;20.47;13.23;;;10.60;99.90;;;;;;5033153;28;20205;-69
2022/09/21 01:31:51;;;;;;;21.00;13.83;;;10.60;99.90;;;;;;5033982;28;20251;-69
2022/09/21 01:34:27;;;;;;;15.03;13.03;;;10.50;99.90;;;;;;5033436;28;20173;-69
2022/09/21 01:36:55;;;;;;;22.10;13.03;;;10.50;99.90;;;;;;5033427;28;20220;-69
2022/09/21 01:39:23;;;;;;;18.10;13.17;;;10.40;99.90;;;;;;5033466;28;20174;-69
2022/09/21 01:41:51;;;;;;;22.33;13.07;;;10.30;99.90;;;;;;5033692;28;20170;-69
2022/09/21 01:44:24;;;;;;;17.03;12.40;;;10.30;99.90;;;;;;5033703;28;20650;-69
2022/09/21 01:46:51;;;;;;;19.30;12.67;;;10.20;99.90;;;;;;5033614;28;20277;-69
2022/09/21 01:49:23;;;;;;;17.20;11.37;;;10.20;99.90;;;;;;5033127;28;20186;-69
2022/09/21 01:51:57;;;;;;;18.80;11.93;;;10.10;99.90;;;;;;5033522;28;20174;-69
2022/09/21 01:54:48;;;;;;;15.30;10.57;;;10.00;99.90;;;;;;5033436;28;20271;-69
2022/09/21 01:57:27;;;;;;;15.33;10.67;;;9.90;99.90;;;;;;5067381;28;20204;-69
2022/09/21 01:59:57;;;;;;;14.73;10.13;;;9.90;99.90;;;;;;5075361;28;20169;-69
2022/09/21 02:02:43;;;;;;;13.97;9.57;;;9.80;99.90;;;;;;5073679;28;20176;-69
2022/09/21 02:05:11;;;;;;;12.63;10.10;;;9.80;99.90;;;;;;5075354;28;20251;-69
2022/09/21 02:07:38;;;;;;;13.87;10.40;;;9.70;99.90;;;;;;5075198;28;20179;-69
2022/09/21 02:10:07;;;;;;;18.30;9.70;;;9.70;99.90;;;;;;5074225;28;20534;-69
2022/09/21 02:12:33;;;;;;;16.77;10.33;;;9.70;99.90;;;;;;5074887;28;20172;-69
2022/09/21 02:15:00;;;;;;;13.77;10.17;;;9.70;99.90;;;;;;5075258;28;20215;-69
2022/09/21 02:17:49;;;;;;;14.50;10.60;;;9.70;99.90;;;;;;5074253;28;20216;-69
2022/09/21 02:20:24;;;;;;;12.17;9.77;;;9.80;99.90;;;;;;5074994;28;20169;-68
2022/09/21 02:23:15;;;;;;;14.27;10.80;;;9.80;99.90;;;;;;5074861;28;20176;-69
2022/09/21 02:26:06;;;;;;;16.20;10.47;;;9.80;99.90;;;;;;5073510;28;20176;-69
2022/09/21 02:28:47;;;;;;;13.77;10.53;;;9.70;99.90;;;;;;5074850;28;20165;-69
2022/09/21 02:31:29;;;;;;;14.30;10.30;;;9.70;99.90;;;;;;5074436;28;20171;-68
2022/09/21 02:34:23;;;;;;;15.40;10.70;;;9.80;99.90;;;;;;5074684;28;20263;-68
2022/09/21 02:37:01;;;;;;;17.73;11.47;;;9.90;99.90;;;;;;5074525;28;20180;-68
2022/09/21 02:40:02;;;;;;;12.87;9.83;;;10.00;99.90;;;;;;5074716;28;20179;-69
2022/09/21 02:42:37;;;;;;;16.53;9.73;;;9.90;99.90;;;;;;5015735;28;20522;-68
2022/09/21 02:45:15;;;;;;;15.53;10.00;;;9.80;99.90;;;;;;5032518;28;20182;-68
2022/09/21 02:47:53;;;;;;;12.97;9.27;;;9.80;99.90;;;;;;5032495;28;20197;-69
2022/09/21 02:50:24;;;;;;;10.00;8.50;;;9.70;99.90;;;;;;5032172;28;20233;-68
2022/09/21 02:52:53;;;;;;;12.07;9.23;;;9.60;99.90;;;;;;5032353;28;20174;-68
2022/09/21 02:55:19;;;;;;;13.20;8.97;;;9.60;99.90;;;;;;5032053;28;20228;-70
2022/09/21 02:57:47;;;;;;;18.03;9.80;;;9.60;99.90;;;;;;5032230;28;20217;-69
2022/09/21 03:00:15;;;;;;;14.47;10.03;;;9.70;99.90;;;;;;5031848;28;20174;-68
2022/09/21 03:02:42;;;;;;;17.93;10.13;;;9.70;99.90;;;;;;5031896;28;20585;-68
2022/09/21 03:05:10;;;;;;;15.37;10.00;;;9.80;99.90;;;;;;5031942;28;20174;-68
2022/09/21 03:07:36;;;;;;;12.57;10.00;;;9.90;99.90;;;;;;5031723;28;20181;-68
2022/09/21 03:10:03;;;;;;;16.27;10.07;;;9.90;99.90;;;;;;5031846;28;20753;-68
2022/09/21 03:12:28;;;;;;;12.40;10.20;;;9.80;99.90;;;;;;5031869;28;20626;-68
2022/09/21 03:14:54;;;;;;;18.43;9.47;;;9.80;99.90;;;;;;5031486;28;20208;-68
2022/09/21 03:17:20;;;;;;;14.27;9.87;;;9.80;99.90;;;;;;5081715;28;20741;-68
2022/09/21 03:19:46;;;;;;;14.27;9.80;;;9.80;99.90;;;;;;5073608;28;20180;-68
2022/09/21 03:22:11;;;;;;;16.10;11.20;;;9.80;99.90;;;;;;5105924;28;20655;-69
2022/09/21 03:24:46;;;;;;;15.63;10.77;;;9.90;99.90;;;;;;5073756;28;20695;-69
2022/09/21 03:27:17;;;;;;;14.37;10.10;;;9.80;99.90;;;;;;5073474;28;20182;-69
2022/09/21 03:29:43;;;;;;;24.50;10.40;;;9.80;99.90;;;;;;5072445;28;20168;-69
2022/09/21 03:32:09;;;;;;;13.43;9.57;;;9.80;99.90;;;;;;5073373;28;20632;-69
2022/09/21 03:34:35;;;;;;;13.13;9.43;;;9.80;99.90;;;;;;5073366;28;20186;-70
2022/09/21 03:37:06;;;;;;;14.67;9.50;;;9.70;99.90;;;;;;5073647;28;20651;-69
2022/09/21 03:39:31;;;;;;;14.10;9.57;;;9.70;99.90;;;;;;5073378;28;20251;-70
2022/09/21 03:41:57;;;;;;;11.50;8.73;;;9.70;99.90;;;;;;5073385;28;20600;-70
2022/09/21 03:44:24;;;;;;;12.90;9.70;;;9.60;99.90;;;;;;5073009;28;20626;-70
2022/09/21 03:46:51;;;;;;;9.83;8.70;;;9.50;99.90;;;;;;5073526;28;20176;-70
2022/09/21 03:49:17;;;;;;;15.87;8.97;;;9.40;99.90;;;;;;5072830;28;20172;-70
2022/09/21 03:51:43;;;;;;;13.40;7.80;;;9.40;99.90;;;;;;5073017;28;20175;-70
2022/09/21 03:54:09;;;;;;;13.53;7.97;;;9.30;99.90;;;;;;5073013;28;20173;-70
2022/09/21 03:56:35;;;;;;;12.17;8.27;;;9.30;99.90;;;;;;5072866;28;20219;-69
2022/09/21 03:59:00;;;;;;;13.33;8.53;;;9.20;99.90;;;;;;5072518;28;20253;-69
2022/09/21 04:01:26;;;;;;;20.27;9.10;;;9.30;99.90;;;;;;5071636;28;20207;-69
2022/09/21 04:03:52;;;;;;;15.97;9.37;;;9.40;99.90;;;;;;5072381;28;20543;-69
2022/09/21 04:06:18;;;;;;;15.37;9.30;;;9.40;99.90;;;;;;5071249;28;20222;-69
2022/09/21 04:08:43;;;;;;;15.40;9.47;;;9.50;99.90;;;;;;5072737;28;20179;-69
2022/09/21 04:11:10;;;;;;;17.73;9.97;;;9.50;99.90;;;;;;5073065;28;20168;-68
2022/09/21 04:13:36;;;;;;;17.47;10.23;;;9.50;99.90;;;;;;5072419;28;20257;-67
2022/09/21 04:16:02;;;;;;;21.20;10.87;;;9.60;99.90;;;;;;5072589;28;20291;-68
2022/09/21 04:18:27;;;;;;;15.40;10.17;;;9.60;99.90;;;;;;5071644;28;20700;-68
2022/09/21 04:20:53;;;;;;;16.73;10.93;;;9.60;99.90;;;;;;5071428;28;20180;-67
2022/09/21 04:23:19;;;;;;;15.50;10.97;;;9.60;99.90;;;;;;5072646;28;20177;-67
2022/09/21 04:25:47;;;;;;;14.43;11.47;;;9.50;99.90;;;;;;5072773;28;20168;-67
2022/09/21 04:28:13;;;;;;;20.77;12.07;;;9.50;99.90;;;;;;5072357;28;20237;-69
2022/09/21 04:30:39;;;;;;;17.63;11.83;;;9.60;99.90;;;;;;5072443;28;20640;-68
2022/09/21 04:33:04;;;;;;;20.27;11.77;;;9.60;99.90;;;;;;5072444;28;20461;-67
2022/09/21 04:35:30;;;;;;;18.37;12.27;;;9.70;99.90;;;;;;5072667;28;20536;-68
2022/09/21 04:37:56;;;;;;;16.80;11.40;;;9.70;99.90;;;;;;5072737;28;20173;-68
2022/09/21 04:40:22;;;;;;;21.30;13.27;;;9.60;99.90;;;;;;5072591;28;20640;-68
2022/09/21 04:42:54;;;;;;;15.60;11.73;;;9.60;99.90;;;;;;5073786;28;20164;-68
2022/09/21 04:45:21;;;;;;;15.17;11.43;;;9.60;99.90;;;;;;5076476;28;20372;-68
2022/09/21 04:47:46;;;;;;;15.47;12.43;;;9.70;99.90;;;;;;5076699;28;20168;-68
2022/09/21 04:50:12;;;;;;;23.70;11.90;;;9.70;99.90;;;;;;5076401;28;20165;-68
2022/09/21 04:52:38;;;;;;;21.43;12.87;;;9.70;99.90;;;;;;5076125;28;20206;-68
2022/09/21 04:55:05;;;;;;;19.93;13.07;;;9.70;99.90;;;;;;5075906;28;20242;-68
2022/09/21 04:57:31;;;;;;;19.73;13.00;;;9.70;99.90;;;;;;5075528;28;20206;-68
2022/09/21 04:59:56;;;;;;;19.47;12.43;;;9.70;99.90;;;;;;5076257;28;20176;-68
2022/09/21 05:02:22;;;;;;;19.17;12.57;;;9.70;99.90;;;;;;5076040;28;20638;-68
2022/09/21 05:04:48;;;;;;;23.13;12.67;;;9.80;99.90;;;;;;5076134;28;20169;-68
2022/09/21 05:07:14;;;;;;;18.37;12.87;;;9.70;99.90;;;;;;5075795;28;20523;-68
2022/09/21 05:12:24;;;;;;;18.97;12.77;;;9.70;99.90;;;;;;5074133;28;20202;-68
2022/09/21 05:14:50;;;;;;;21.67;12.57;;;9.60;99.90;;;;;;5075260;28;20200;-68
2022/09/21 05:17:16;;;;;;;18.73;12.70;;;9.50;99.90;;;;;;5075333;28;20228;-68
2022/09/21 05:19:41;;;;;;;19.80;12.80;;;9.50;99.90;;;;;;5075494;28;20175;-68
2022/09/21 05:22:07;;;;;;;21.20;12.90;;;9.50;99.90;;;;;;5074438;28;20176;-70
2022/09/21 05:24:33;;;;;;;19.13;11.63;;;9.50;99.90;;;;;;5074968;28;20169;-67
2022/09/21 05:26:59;;;;;;;18.77;11.10;;;9.50;99.90;;;;;;5074232;28;20184;-68
2022/09/21 05:29:25;;;;;;;22.63;11.30;;;9.50;99.90;;;;;;5075652;28;20616;-67
2022/09/21 05:32:07;;;;;;;20.90;10.13;;;9.40;99.90;;;;;;5075294;28;20181;-68
2022/09/21 05:35:03;;;;;;;18.23;10.00;;;9.40;99.90;;;;;;5074788;28;20670;-70
2022/09/21 05:37:37;;;;;;;18.83;10.87;;;9.50;99.90;;;;;;5075213;28;20176;-69
2022/09/21 05:40:04;;;;;;;23.80;12.37;;;9.50;99.90;;;;;;5074557;28;20175;-68
2022/09/21 05:42:30;;;;;;;28.77;12.93;;;9.60;99.90;;;;;;5075159;28;20181;-68
2022/09/21 05:44:56;;;;;;;25.97;12.40;;;9.70;99.90;;;;;;5074375;28;20173;-69
2022/09/21 05:47:52;;;;;;;24.10;12.23;;;9.70;99.90;;;;;;5075106;28;20177;-69
2022/09/21 05:50:20;;;;;;;19.37;12.03;;;10.00;99.90;;;;;;5074417;28;20180;-69
2022/09/21 05:53:13;;;;;;;23.73;12.00;;;10.20;99.90;;;;;;5074073;28;20164;-69
2022/09/21 05:55:55;;;;;;;18.63;11.47;;;10.40;99.90;;;;;;5072401;28;20238;-68
2022/09/21 05:59:05;;;;;;;19.33;11.57;;;10.70;99.90;;;;;;5074725;28;20650;-69
2022/09/21 06:01:40;;;;;;;16.80;11.37;;;11.10;99.90;;;;;;5031878;28;20185;-69
2022/09/21 06:04:11;;;;;;;18.40;10.60;;;11.40;99.90;;;;;;5032315;28;20173;-69
2022/09/21 06:06:37;;;;;;;14.93;10.90;;;11.70;99.90;;;;;;5032438;28;20182;-69
2022/09/21 06:09:03;;;;;;;14.00;9.53;;;11.70;99.90;;;;;;5031997;28;20174;-69
2022/09/21 06:11:29;;;;;;;21.13;10.23;;;11.90;99.90;;;;;;5032137;28;20189;-69
2022/09/21 06:13:54;;;;;;;19.40;10.47;;;12.10;99.90;;;;;;5031615;28;20501;-69
2022/09/21 06:16:20;;;;;;;21.07;10.20;;;12.40;99.90;;;;;;5031558;28;20237;-70
2022/09/21 06:18:45;;;;;;;20.23;12.57;;;12.40;99.90;;;;;;5031317;28;20308;-69
2022/09/21 06:21:11;;;;;;;15.70;10.90;;;12.50;99.90;;;;;;5031668;28;20169;-68
2022/09/21 06:23:36;;;;;;;12.20;10.10;;;12.70;99.90;;;;;;5031697;28;20189;-68
2022/09/21 06:26:02;;;;;;;18.43;10.93;;;12.80;98.80;;;;;;5031614;28;20193;-68
2022/09/21 06:28:28;;;;;;;16.70;10.40;;;13.10;95.30;;;;;;5032079;28;20285;-70
2022/09/21 06:30:55;;;;;;;17.43;11.00;;;13.20;82.60;;;;;;5032063;28;20201;-70
2022/09/21 06:33:22;;;;;;;25.47;11.03;;;13.30;51.40;;;;;;5031955;28;20244;-70
2022/09/21 06:35:56;;;;;;;16.10;10.93;;;13.50;55.90;;;;;;5031501;28;20225;-70
2022/09/21 06:38:23;;;;;;;24.13;11.23;;;13.80;47.40;;;;;;5053614;28;20203;-70
2022/09/21 06:40:50;;;;;;;18.73;10.30;;;14.40;41.10;;;;;;5073392;28;20176;-70
2022/09/21 06:43:16;;;;;;;22.47;10.53;;;15.10;15.70;;;;;;5074066;28;20294;-71
2022/09/21 06:45:41;;;;;;;20.07;10.37;;;15.90;1.00;;;;;;5073604;28;20204;-72
2022/09/21 06:48:07;;;;;;;20.80;10.73;;;16.80;1.00;;;;;;5071989;28;20267;-71
2022/09/21 06:50:33;;;;;;;20.07;10.40;;;17.90;1.00;;;;;;5073579;28;20176;-72
2022/09/21 06:52:59;;;;;;;19.37;10.17;;;18.80;1.00;;;;;;5073353;28;20171;-73
2022/09/21 06:55:25;;;;;;;18.50;10.85;;;20.00;99.90;;;;;;5072046;28;20228;-73
2022/09/21 06:57:50;;;;;;;22.00;10.25;;;20.80;99.90;;;;;;5073445;28;20179;-71
2022/09/21 07:00:16;;;;;;;20.17;10.48;;;21.50;1.00;;;;;;5071974;28;20191;-72
2022/09/21 07:02:45;;;;;;;16.38;10.63;;;21.90;1.00;;;;;;5073611;28;20177;-72
2022/09/21 07:05:11;;;;;;;14.52;10.45;;;22.20;99.90;;;;;;5072366;28;20632;-72
2022/09/21 07:07:37;;;;;;;23.17;10.93;;;22.20;1.00;;;;;;5073162;28;20260;-73
2022/09/21 07:10:03;;;;;;;19.98;9.98;;;22.40;99.90;;;;;;5071800;28;20259;-73
2022/09/21 07:12:33;;;;;;;18.02;10.55;;;22.90;1.00;;;;;;5072895;28;20165;-74
2022/09/21 07:14:59;;;;;;;21.52;10.73;;;23.20;1.00;;;;;;5072977;28;20204;-73
2022/09/21 07:17:25;;;;;;;20.63;10.50;;;23.90;18.00;;;;;;5070973;28;20734;-74
2022/09/21 07:19:51;;;;;;;18.52;10.02;;;24.50;1.00;;;;;;5071962;28;20176;-73
2022/09/21 07:22:16;;;;;;;22.70;10.98;;;24.70;1.00;;;;;;5049716;28;20262;-74
2022/09/21 07:24:42;;;;;;;18.40;10.18;;;24.40;1.00;;;;;;5001001;28;20202;-72
2022/09/21 07:27:07;;;;;;;17.60;9.77;;;24.70;1.00;;;;;;5009783;28;20188;-74
2022/09/21 07:29:33;;;;;;;21.98;9.48;;;25.20;1.00;;;;;;4979865;28;20192;-73
2022/09/21 07:31:58;;;;;;;17.33;9.27;;;23.10;99.90;;;;;;5014544;28;20164;-74
2022/09/21 07:34:24;;;;;;;19.13;10.02;;;22.70;1.00;;;;;;5033056;28;20662;-70
2022/09/21 07:36:49;;;;;;;17.10;9.43;;;23.00;1.00;;;;;;5003678;28;20204;-71
2022/09/21 07:39:15;;;;;;;17.70;9.20;;;23.40;99.90;;;;;;5041968;28;20183;-72
2022/09/21 07:41:41;;;;;;;18.55;9.88;;;24.20;1.00;;;;;;5005457;28;20336;-71
2022/09/21 07:44:06;;;;;;;18.55;9.13;;;25.10;1.00;;;;;;5031034;28;20195;-71
2022/09/21 07:46:32;;;;;;;18.10;10.80;;;25.00;1.00;;;;;;5010594;28;20168;-71
2022/09/21 07:48:57;;;;;;;30.15;11.10;;;24.60;1.00;;;;;;5041327;28;20634;-72
2022/09/21 07:51:23;;;;;;;27.05;11.57;;;24.00;1.00;;;;;;5034908;28;20641;-72
2022/09/21 07:53:57;;;;;;;28.38;11.40;;;24.90;1.00;;;;;;4974053;28;20686;-72
2022/09/21 07:56:23;;;;;;;20.38;11.85;;;26.20;1.00;;;;;;4974333;28;20228;-73
2022/09/21 07:59:07;;;;;;;25.75;11.55;;;26.90;99.90;;;;;;4967430;28;20195;-72
2022/09/21 08:01:41;;;;;;;16.55;11.40;;;26.90;99.90;;;;;;4965286;28;20647;-71
2022/09/21 08:04:08;;;;;;;15.63;10.23;;;27.20;99.90;;;;;;4973958;28;20184;-71
2022/09/21 08:06:38;;;;;;;18.38;11.05;;;26.80;99.90;;;;;;4961802;28;20177;-71
2022/09/21 08:09:05;;;;;;;17.65;11.07;;;26.60;99.90;;;;;;4972689;28;20172;-72
2022/09/21 08:11:36;;;;;;;17.77;10.80;;;27.40;99.90;;;;;;4988447;28;20175;-72
2022/09/21 08:14:02;;;;;;;15.50;10.93;;;26.90;99.90;;;;;;4971206;28;20179;-72
2022/09/21 08:16:29;;;;;;;21.50;10.85;;;28.20;99.90;;;;;;4989773;28;20242;-72
2022/09/21 08:18:55;;;;;;;14.35;10.50;;;27.80;99.90;;;;;;4974811;28;20187;-72
2022/09/21 08:21:21;;;;;;;17.48;10.38;;;27.80;99.90;;;;;;5031615;28;20286;-72
2022/09/21 08:23:48;;;;;;;18.25;10.20;;;28.40;99.90;;;;;;4982619;28;20187;-72
2022/09/21 08:26:17;;;;;;;14.80;10.40;;;28.80;99.90;;;;;;4971112;28;20251;-72
2022/09/21 08:28:48;;;;;;;14.00;9.10;;;28.40;99.90;;;;;;4975060;28;20168;-73
2022/09/21 08:31:14;;;;;;;12.15;9.10;;;28.10;99.90;;;;;;4967541;28;20184;-73
2022/09/21 08:33:40;;;;;;;16.25;9.60;;;27.20;99.90;;;;;;4990540;28;20176;-73
2022/09/21 08:36:07;;;;;;;14.02;9.27;;;27.50;99.90;;;;;;5009945;28;20553;-73
2022/09/21 08:38:34;;;;;;;16.23;10.20;;;27.60;99.90;;;;;;5018358;28;20230;-73
2022/09/21 08:41:02;;;;;;;17.13;9.27;;;27.90;99.90;;;;;;4975913;28;20666;-74
2022/09/21 08:43:45;;;;;;;20.27;10.27;;;27.80;99.90;;;;;;4988458;28;20192;-73
2022/09/21 08:46:18;;;;;;;10.57;8.98;;;28.10;99.90;;;;;;4976936;28;20190;-73
2022/09/21 08:48:58;;;;;;;17.15;9.77;;;27.90;99.90;;;;;;4975901;28;20207;-74
2022/09/21 08:51:32;;;;;;;18.73;9.90;;;27.60;99.90;;;;;;4970937;28;20188;-73
2022/09/21 08:54:12;;;;;;;18.25;9.52;;;27.60;99.90;;;;;;4987106;28;20263;-73
2022/09/21 08:56:37;;;;;;;15.40;8.63;;;28.00;99.90;;;;;;4975599;28;20291;-73
2022/09/21 08:59:07;;;;;;;11.63;8.43;;;28.30;99.90;;;;;;4973077;28;20320;-74
2022/09/21 09:01:58;;;;;;;11.98;8.15;;;28.10;99.90;;;;;;4998028;28;20255;-73
2022/09/21 09:04:45;;;;;;;10.98;7.03;;;27.40;99.90;;;;;;4975139;28;20218;-74
2022/09/21 09:07:43;;;;;;;10.88;5.95;;;27.80;99.90;;;;;;4983479;28;20269;-74
2022/09/21 09:10:35;;;;;;;8.70;5.50;;;27.20;99.90;;;;;;4975748;28;20205;-73
2022/09/21 09:13:37;;;;;;;9.18;6.55;;;26.70;99.90;;;;;;4977897;28;20262;-73
2022/09/21 09:16:28;;;;;;;6.75;4.78;;;27.10;99.90;;;;;;4973011;28;20195;-74
2022/09/21 09:19:02;;;;;;;5.63;4.75;;;25.30;99.90;;;;;;4975161;28;20184;-74
2022/09/21 09:21:37;;;;;;;5.95;5.28;;;23.90;99.90;;;;;;4961331;28;20983;-74
2022/09/21 09:24:08;;;;;;;9.80;5.97;;;24.40;1.00;;;;;;4978234;28;20175;-73
2022/09/21 09:27:03;;;;;;;5.68;5.05;;;25.80;99.90;;;;;;4984203;28;20306;-75
2022/09/21 09:29:43;;;;;;;7.75;5.00;;;25.70;99.90;;;;;;4972782;28;20176;-73
2022/09/21 09:32:14;;;;;;;6.53;4.95;;;25.20;99.90;;;;;;4969569;28;20219;-73
2022/09/21 09:34:44;;;;;;;6.43;4.90;;;25.90;99.90;;;;;;4981923;28;20258;-73
2022/09/21 09:37:12;;;;;;;5.07;4.57;;;26.60;99.90;;;;;;4976121;28;20184;-72
2022/09/21 09:39:40;;;;;;;8.82;4.38;;;27.00;99.90;;;;;;4970177;28;20223;-73
2022/09/21 09:42:39;;;;;;;6.65;3.63;;;27.00;99.90;;;;;;4976060;28;20164;-73
2022/09/21 09:45:32;;;;;;;5.45;3.90;;;26.30;99.90;;;;;;4999092;28;20171;-73
2022/09/21 09:48:03;;;;;;;5.03;4.00;;;26.10;99.90;;;;;;4969411;28;20176;-73
2022/09/21 09:50:36;;;;;;;8.02;3.58;;;26.70;99.90;;;;;;4968039;28;20594;-74
2022/09/21 09:53:15;;;;;;;3.85;3.08;;;27.50;99.90;;;;;;4971987;28;20272;-73
2022/09/21 09:55:48;;;;;;;5.45;2.78;;;27.20;99.90;;;;;;4968750;28;20225;-74
2022/09/21 09:58:32;;;;;;;6.78;3.33;;;26.70;99.90;;;;;;4971653;28;20188;-74
2022/09/21 10:00:57;;;;;;;6.88;3.00;;;26.80;99.90;;;;;;5023520;28;20218;-72
2022/09/21 10:03:25;;;;;;;3.95;2.22;;;27.30;99.90;;;;;;4970615;28;20176;-72
2022/09/21 10:05:52;;;;;;;3.53;1.98;;;27.40;99.90;;;;;;4979420;28;20175;-72
2022/09/21 10:08:43;;;;;;;3.95;1.92;;;25.60;99.90;;;;;;5003221;28;20418;-72
2022/09/21 10:11:14;;;;;;;4.55;2.28;;;26.10;99.90;;;;;;4909527;28;20197;-71
2022/09/21 10:13:47;;;;;;;3.85;1.83;;;26.60;99.90;;;;;;4918001;28;20273;-72
2022/09/21 10:16:17;;;;;;;5.93;1.92;;;24.30;99.90;;;;;;4916868;28;20225;-72
2022/09/21 10:19:00;;;;;;;2.95;1.65;;;24.20;99.90;;;;;;4918876;29;20621;-72
2022/09/21 10:21:45;;;;;;;5.00;1.55;;;24.90;99.90;;;;;;4919254;28;20173;-72
2022/09/21 10:24:45;;;;;;;3.13;2.72;;;25.00;99.90;;;;;;4917798;29;20344;-72
2022/09/21 10:27:17;;;;;;;2.53;1.58;;;25.00;99.90;;;;;;4919620;28;20183;-71
2022/09/21 10:29:45;;;;;;;3.80;1.65;;;24.30;99.90;;;;;;4907097;28;20190;-72
2022/09/21 10:32:11;;;;;;;6.60;1.88;;;22.40;99.90;;;;;;4910587;28;20181;-73
2022/09/21 10:34:37;;;;;;;3.53;1.70;;;22.30;1.00;;;;;;4917042;28;20198;-74
2022/09/21 10:37:27;;;;;;;2.80;1.70;;;21.30;19.50;;;;;;4907431;29;20182;-74
2022/09/21 10:39:54;;;;;;;4.82;1.67;;;20.60;1.00;;;;;;4903057;29;20174;-74
2022/09/21 10:42:20;;;;;;;4.72;2.50;;;19.80;99.90;;;;;;4917192;29;20200;-73
2022/09/21 10:45:03;;;;;;;4.07;1.45;;;20.40;99.90;;;;;;4902579;29;20205;-74
2022/09/21 10:47:36;;;;;;;3.15;1.30;;;21.70;17.00;;;;;;4912100;29;20680;-74
2022/09/21 10:50:33;;;;;;;4.63;1.50;;;23.40;1.00;;;;;;4934122;28;20243;-72
2022/09/21 10:53:09;;;;;;;4.95;1.70;;;25.00;99.90;;;;;;4931430;28;20247;-75
2022/09/21 10:55:55;;;;;;;3.63;1.83;;;24.60;99.90;;;;;;4951453;28;20754;-73
2022/09/21 10:58:20;;;;;;;2.45;1.60;;;25.60;99.90;;;;;;4952133;28;20692;-73
2022/09/21 11:00:50;;;;;;;3.97;1.67;;;25.60;99.90;;;;;;4951094;28;20287;-74
2022/09/21 11:03:35;;;;;;;3.88;1.30;;;24.70;99.90;;;;;;4951421;28;20183;-73
2022/09/21 11:06:21;;;;;;;4.57;1.30;;;23.10;99.90;;;;;;4951484;28;20176;-75
2022/09/21 11:09:05;;;;;;;2.78;1.30;;;23.30;99.90;;;;;;4952238;28;20183;-76
2022/09/21 11:11:56;;;;;;;3.00;1.30;;;22.30;1.00;;;;;;4950541;28;20181;-76
2022/09/21 11:14:42;;;;;;;3.33;1.42;;;23.60;99.90;;;;;;4930428;29;20196;-75
2022/09/21 11:17:28;;;;;;;3.67;2.78;;;24.20;99.90;;;;;;5020729;28;20216;-74
2022/09/21 11:20:08;;;;;;;3.03;1.92;;;25.60;99.90;;;;;;4975544;28;20185;-73
2022/09/21 11:23:03;;;;;;;3.75;1.60;;;26.10;99.90;;;;;;4996579;28;20234;-75
2022/09/21 11:25:45;;;;;;;3.38;1.80;;;26.50;99.90;;;;;;5033313;28;20174;-78
2022/09/21 11:28:27;;;;;;;4.45;1.75;;;26.40;99.90;;;;;;4947257;28;20205;-76
2022/09/21 11:31:31;;;;;;;6.13;1.42;;;25.40;99.90;;;;;;4949187;28;20180;-75
2022/09/21 11:34:31;;;;;;;2.25;1.42;;;24.60;99.90;;;;;;4983373;28;20184;-76
2022/09/21 11:37:33;;;;;;;3.75;1.13;;;23.40;99.90;;;;;;4980503;28;20707;-76
2022/09/21 11:40:28;;;;;;;2.05;1.25;;;21.60;99.90;;;;;;4979050;28;20179;-75
2022/09/21 11:43:07;;;;;;;4.90;1.50;;;21.50;1.00;;;;;;4982261;28;20203;-74
2022/09/21 11:45:56;;;;;;;1.73;1.00;;;21.40;1.00;;;;;;4968179;28;20591;-72
2022/09/21 11:48:47;;;;;;;4.18;1.52;;;20.70;1.00;;;;;;4948466;28;20228;-72
2022/09/21 11:51:43;;;;;;;3.35;1.50;;;20.60;99.90;;;;;;4965582;28;20189;-74
2022/09/21 11:54:51;;;;;;;7.53;1.75;;;21.70;1.00;;;;;;4899273;28;23955;-73
2022/09/21 11:57:58;;;;;;;5.07;1.70;;;22.60;1.00;;;;;;4887013;28;20285;-75
2022/09/21 12:00:29;;;;;;;4.20;1.20;;;23.10;99.90;;;;;;4912537;28;20190;-74
2022/09/21 12:03:16;;;;;;;5.07;1.30;;;23.30;99.90;;;;;;4899650;28;20580;-74
2022/09/21 12:05:50;;;;;;;4.05;1.08;;;22.90;99.90;;;;;;4908078;28;20179;-74
2022/09/21 12:08:57;;;;;;;3.35;1.38;;;22.40;99.90;;;;;;4899877;28;20658;-73
2022/09/21 12:11:31;;;;;;;5.13;1.42;;;22.30;99.90;;;;;;4894410;28;20202;-73
2022/09/21 12:14:33;;;;;;;1.63;1.52;;;21.20;99.90;;;;;;4978186;28;20175;-74
2022/09/21 12:17:01;;;;;;;4.88;1.33;;;21.00;1.00;;;;;;4917022;28;20326;-73
2022/09/21 12:19:54;;;;;;;4.40;1.40;;;20.80;1.00;;;;;;4887428;28;20195;-73
2022/09/21 12:22:23;;;;;;;4.10;1.60;;;20.40;1.00;;;;;;4890209;28;20730;-73
2022/09/21 12:24:58;;;;;;;2.22;2.00;;;20.50;1.00;;;;;;4889299;28;20197;-72
2022/09/21 12:27:33;;;;;;;5.43;1.83;;;20.70;99.90;;;;;;4903800;28;20190;-72
2022/09/21 12:30:09;;;;;;;2.78;1.35;;;20.90;1.00;;;;;;4917410;28;20265;-73
2022/09/21 12:32:50;;;;;;;2.45;1.20;;;20.80;1.00;;;;;;4975078;28;20192;-73
2022/09/21 12:35:38;;;;;;;3.90;2.08;;;20.60;1.00;;;;;;4961436;28;20239;-72
2022/09/21 12:38:12;;;;;;;4.15;1.60;;;20.60;1.00;;;;;;4949763;28;20210;-73
2022/09/21 12:40:58;;;;;;;2.60;1.20;;;21.00;1.00;;;;;;4949523;28;20252;-72
2022/09/21 12:43:56;;;;;;;5.07;1.40;;;21.30;1.00;;;;;;4953017;28;20203;-73
2022/09/21 12:46:31;;;;;;;2.47;1.98;;;21.20;1.00;;;;;;5016314;28;20377;-72
2022/09/21 12:49:00;;;;;;;2.53;1.58;;;20.90;1.00;;;;;;5020825;28;20192;-72
2022/09/21 12:51:26;;;;;;;2.38;1.92;;;20.00;1.00;;;;;;5011514;28;20582;-71
2022/09/21 12:53:54;;;;;;;3.95;1.95;;;19.80;1.00;;;;;;5026402;28;20193;-72
2022/09/21 12:57:01;;;;;;;9.25;2.30;;;20.10;1.00;;;;;;5018106;28;20229;-72
2022/09/21 13:00:00;;;;;;;3.20;1.90;;;20.50;1.00;;;;;;4966005;28;20350;-72
2022/09/21 13:02:41;;;;;;;2.55;2.22;;;21.00;1.00;;;;;;4953471;28;20198;-72
2022/09/21 13:05:22;;;;;;;5.00;1.70;;;21.30;99.90;;;;;;4973946;28;20226;-72
2022/09/21 13:08:06;;;;;;;4.38;1.48;;;21.50;1.00;;;;;;4959102;28;20217;-73
2022/09/21 13:10:54;;;;;;;4.78;2.30;;;21.90;99.90;;;;;;4971472;28;20223;-72
2022/09/21 13:13:43;;;;;;;3.45;1.50;;;22.20;99.90;;;;;;4973215;28;20207;-71